Nord Express — 9V9150 — position and weather

sailwx.info

Track history (hours):
 
Tides and Currents Weather Stations Pressure Air Temp Water Temp Dewpoint Dewpoint Depression Visibility Wind Speed Wind Dir Waves Ship Positions

Nord Express

Last reported at 2017-Aug-20 02:40 UTC. Time now 2017-Sep-22 02:35 UTC.
Position N 27°06' W 015°45'.
Warning: this ship's position is 32 days out of date.

Length 185 m; draft 12.3 m.

Type: Ship. MMSI: 565462000.

Date/timePositionNaut miles runAvg speedWind from/ knotsBaromVisibWave heightAir tempDewpointWater temp
2017-Aug-20 02:40N 27°06' W 015°45'1712.1
2017-Aug-20 01:15N 27°20' W 015°33'312.5
2017-Aug-20 01:00N 27°22' W 015°31'2812.4
2017-Aug-19 22:44N 27°48' W 015°17'312.5
2017-Aug-19 22:30N 27°51' W 015°17'612.5
2017-Aug-19 22:00N 27°57' W 015°16'510.9
2017-Aug-19 21:30N 28°02' W 015°18'611.2
2017-Aug-19 21:00N 28°06' W 015°23'2 4.8
2017-Aug-19 20:30N 28°07' W 015°25'0 0.1
2017-Aug-19 19:59N 28°07' W 015°25'0 0.0
2017-Aug-19 19:29N 28°07' W 015°25'0 0.0
2017-Aug-19 18:59N 28°07' W 015°25'0 0.0
2017-Aug-19 18:29N 28°07' W 015°25'0 0.0
2017-Aug-19 17:59N 28°07' W 015°25'0 0.1
2017-Aug-19 17:29N 28°07' W 015°25'0 0.0
2017-Aug-19 16:59N 28°07' W 015°25'0 0.0
2017-Aug-19 16:29N 28°07' W 015°25'0 0.1
2017-Aug-19 15:47N 28°07' W 015°25'0 0.1
2017-Aug-19 15:29N 28°07' W 015°25'0 0.0
2017-Aug-19 14:59N 28°07' W 015°25'0 0.0
2017-Aug-19 13:59N 28°07' W 015°25'0 0.1
2017-Aug-19 13:21N 28°07' W 015°25'1 2.5
2017-Aug-19 13:00N 28°07' W 015°24'0 0.5
2017-Aug-19 12:28N 28°07' W 015°24'0 0.0
2017-Aug-19 11:58N 28°07' W 015°24'0 0.0
2017-Aug-19 11:28N 28°07' W 015°24'0 0.0
2017-Aug-19 10:58N 28°07' W 015°24'0 0.1
2017-Aug-19 10:28N 28°07' W 015°24'0 0.0
2017-Aug-19 09:58N 28°07' W 015°24'0 0.0
2017-Aug-19 09:28N 28°07' W 015°24'0 0.1
2017-Aug-19 08:58N 28°07' W 015°24'0 0.0
2017-Aug-19 08:28N 28°07' W 015°24'0 0.1
2017-Aug-19 07:58N 28°07' W 015°24'0 0.1
2017-Aug-19 07:28N 28°07' W 015°24'0 0.2
2017-Aug-19 06:58N 28°07' W 015°24'0 0.1
2017-Aug-19 06:19N 28°07' W 015°24'0 0.0
2017-Aug-19 05:49N 28°07' W 015°24'0 0.0
2017-Aug-19 05:19N 28°07' W 015°24'0 0.0
2017-Aug-19 04:52N 28°07' W 015°24'0 0.3
2017-Aug-19 04:22N 28°07' W 015°24'1 2.8
2017-Aug-19 04:00N 28°07' W 015°23'2 4.8
2017-Aug-19 03:30N 28°09' W 015°21'3 5.5
2017-Aug-19 03:00N 28°11' W 015°19'3 6.1
2017-Aug-19 02:30N 28°13' W 015°17'3 6.7
2017-Aug-19 02:00N 28°16' W 015°14'3 6.8
2017-Aug-19 01:30N 28°18' W 015°12'3 6.5
2017-Aug-19 01:00N 28°21' W 015°09'4 8.9
2017-Aug-19 00:30N 28°24' W 015°13'611.3
2017-Aug-19 00:00N 28°27' W 015°18'611.3
2017-Aug-18 23:30N 28°30' W 015°23'611.2
2017-Aug-18 23:00N 28°34' W 015°28'611.1
2017-Aug-18 22:30N 28°37' W 015°34'611.5
2017-Aug-18 22:00N 28°40' W 015°39'611.7
2017-Aug-18 21:30N 28°44' W 015°44'911.5
2017-Aug-18 20:45N 28°49' W 015°52'311.4
2017-Aug-18 20:30N 28°50' W 015°55'611.3
2017-Aug-18 19:59N 28°54' W 016°00'611.6
2017-Aug-18 19:30N 28°57' W 016°06'611.7
2017-Aug-18 19:00N 29°00' W 016°11'611.6
2017-Aug-18 18:30N 29°04' W 016°16'611.5
2017-Aug-18 18:00N 29°07' W 016°22'611.3
2017-Aug-18 17:30N 29°10' W 016°27'611.2
2017-Aug-18 17:00N 29°13' W 016°32'611.2
2017-Aug-18 16:30N 29°17' W 016°37'1311.4
2017-Aug-18 15:24N 29°24' W 016°49'2311.4
2017-Aug-18 13:25N 29°40' W 017°08'511.2
2017-Aug-18 13:00N 29°42' W 017°13'511.2
2017-Aug-18 12:30N 29°46' W 017°18'2311.3
2017-Aug-18 10:29N 29°58' W 017°40'811.1
2017-Aug-18 09:47N 30°03' W 017°47'311.2
2017-Aug-18 09:30N 30°05' W 017°50'611.3
2017-Aug-18 09:00N 30°08' W 017°55'911.1
2017-Aug-18 08:09N 30°13' W 018°04'210.9
2017-Aug-18 08:00N 30°14' W 018°06'611.3
2017-Aug-18 07:29N 30°17' W 018°12'1911.2
2017-Aug-18 05:49N 30°27' W 018°30'411.1
2017-Aug-18 05:29N 30°29' W 018°34'1711.2
2017-Aug-18 04:00N 30°39' W 018°50'611.4
2017-Aug-18 03:30N 30°42' W 018°55'611.3
2017-Aug-18 02:59N 30°45' W 019°01'511.2
2017-Aug-18 02:30N 30°47' W 019°06'511.1
2017-Aug-18 02:00N 30°50' W 019°12'711.2
2017-Aug-18 01:20N 30°54' W 019°20'411.1
2017-Aug-18 00:59N 30°55' W 019°24'511.0
2017-Aug-18 00:30N 30°58' W 019°29'611.1
2017-Aug-18 00:00N 31°00' W 019°35'611.2
2017-Aug-17 23:31N 31°03' W 019°41'611.3
2017-Aug-17 23:00N 31°06' W 019°46'711.6
2017-Aug-17 22:26N 31°09' W 019°53'511.4
2017-Aug-17 22:00N 31°11' W 019°58'611.5
2017-Aug-17 21:30N 31°14' W 020°04'1211.6
2017-Aug-17 20:28N 31°20' W 020°16'1011.7
2017-Aug-17 19:35N 31°25' W 020°27'111.4
2017-Aug-17 19:30N 31°26' W 020°28'1211.7
2017-Aug-17 18:27N 31°32' W 020°40'511.6
2017-Aug-17 18:00N 31°34' W 020°46'2111.4
2017-Aug-17 16:08N 31°44' W 021°08'211.2
2017-Aug-17 16:00N 31°44' W 021°10'41 9.6
2017-Aug-17 11:42N 32°15' W 021°42'1412.0
2017-Aug-17 10:33N 32°22' W 021°56'212.3
2017-Aug-17 10:22N 32°23' W 021°58'912.2
2017-Aug-17 09:38N 32°28' W 022°07'212.1
2017-Aug-17 09:28N 32°29' W 022°10'12011.6
2017-Aug-16 23:10N 33°32' W 024°11'2511.6
2017-Aug-16 20:59N 33°46' W 024°37'611.6
2017-Aug-16 20:27N 33°49' W 024°43'3112.1
2017-Aug-16 17:54N 34°04' W 025°15'2712.6
2017-Aug-16 15:43N 34°18' W 025°44'4812.5
2017-Aug-16 11:52N 34°41' W 026°35'1112.5
2017-Aug-16 10:57N 34°46' W 026°47'2512.5
2017-Aug-16 08:58N 34°58' W 027°14'4012.3
2017-Aug-16 05:43N 35°18' W 027°57'312.9
2017-Aug-16 05:27N 35°20' W 028°00'912.6
2017-Aug-16 04:44N 35°24' W 028°10'412.4
2017-Aug-16 04:26N 35°26' W 028°14'512.4
2017-Aug-16 04:00N 35°28' W 028°20'612.4
2017-Aug-16 03:29N 35°31' W 028°27'612.1
2017-Aug-16 02:59N 35°34' W 028°33'612.0
2017-Aug-16 02:31N 35°37' W 028°39'812.2
2017-Aug-16 01:53N 35°41' W 028°47'512.5
2017-Aug-16 01:29N 35°43' W 028°53'712.8
2017-Aug-16 00:56N 35°47' W 029°01'512.7
2017-Aug-16 00:30N 35°49' W 029°06'1612.8
2017-Aug-15 23:17N 35°57' W 029°23'412.4
2017-Aug-15 22:58N 35°59' W 029°27'1412.2
2017-Aug-15 21:47N 36°05' W 029°43'612.4
2017-Aug-15 21:18N 36°08' W 029°50'412.5
2017-Aug-15 21:00N 36°10' W 029°54'712.3
2017-Aug-15 20:28N 36°13' W 030°01'612.2
2017-Aug-15 20:00N 36°16' W 030°07'712.1
2017-Aug-15 19:24N 36°19' W 030°15'1012.4
2017-Aug-15 18:37N 36°23' W 030°26'712.5
2017-Aug-15 18:05N 36°26' W 030°34'212.2
2017-Aug-15 17:57N 36°27' W 030°35'612.1
2017-Aug-15 17:29N 36°30' W 030°42'812.2
2017-Aug-15 16:52N 36°33' W 030°50'412.3
2017-Aug-15 16:30N 36°35' W 030°55'1512.2
2017-Aug-15 15:18N 36°41' W 031°12'412.5
2017-Aug-15 15:00N 36°43' W 031°16'912.1
2017-Aug-15 14:17N 36°47' W 031°25'412.8
2017-Aug-15 14:01N 36°48' W 031°29'812.4
2017-Aug-15 13:19N 36°52' W 031°39'612.1
2017-Aug-15 12:50N 36°55' W 031°46'411.9
2017-Aug-15 12:28N 36°56' W 031°50'1712.0
2017-Aug-15 11:04N 37°04' W 032°10'111.7
2017-Aug-15 11:00N 37°04' W 032°10'712.5
2017-Aug-15 10:28N 37°07' W 032°18'612.6
2017-Aug-15 10:00N 37°10' W 032°25'612.8
2017-Aug-15 09:30N 37°12' W 032°32'10812.2
2017-Aug-15 00:36N 37°60' W 034°35'  
Track history (hours):
 
Tides and Currents Weather Stations Pressure Air Temp Water Temp Dewpoint Dewpoint Depression Visibility Wind Speed Wind Dir Waves Ship Positions

Nord Express

Last reported at 2017-Aug-20 02:40 UTC. Time now 2017-Sep-22 02:35 UTC.
Position N 27°06' W 015°45'.
Warning: this ship's position is 32 days out of date.

Length 185 m; draft 12.3 m.

Type: Ship. MMSI: 565462000.

Date/timePositionNaut miles runAvg speedWind from/ knotsBaromVisibWave heightAir tempDewpointWater temp
2017-Aug-20 02:40N 27°06' W 015°45'1712.1
2017-Aug-20 01:15N 27°20' W 015°33'312.5
2017-Aug-20 01:00N 27°22' W 015°31'2812.4
2017-Aug-19 22:44N 27°48' W 015°17'312.5
2017-Aug-19 22:30N 27°51' W 015°17'612.5
2017-Aug-19 22:00N 27°57' W 015°16'510.9
2017-Aug-19 21:30N 28°02' W 015°18'611.2
2017-Aug-19 21:00N 28°06' W 015°23'2 4.8
2017-Aug-19 20:30N 28°07' W 015°25'0 0.1
2017-Aug-19 19:59N 28°07' W 015°25'0 0.0
2017-Aug-19 19:29N 28°07' W 015°25'0 0.0
2017-Aug-19 18:59N 28°07' W 015°25'0 0.0
2017-Aug-19 18:29N 28°07' W 015°25'0 0.0
2017-Aug-19 17:59N 28°07' W 015°25'0 0.1
2017-Aug-19 17:29N 28°07' W 015°25'0 0.0
2017-Aug-19 16:59N 28°07' W 015°25'0 0.0
2017-Aug-19 16:29N 28°07' W 015°25'0 0.1
2017-Aug-19 15:47N 28°07' W 015°25'0 0.1
2017-Aug-19 15:29N 28°07' W 015°25'0 0.0
2017-Aug-19 14:59N 28°07' W 015°25'0 0.0
2017-Aug-19 13:59N 28°07' W 015°25'0 0.1
2017-Aug-19 13:21N 28°07' W 015°25'1 2.5
2017-Aug-19 13:00N 28°07' W 015°24'0 0.5
2017-Aug-19 12:28N 28°07' W 015°24'0 0.0
2017-Aug-19 11:58N 28°07' W 015°24'0 0.0
2017-Aug-19 11:28N 28°07' W 015°24'0 0.0
2017-Aug-19 10:58N 28°07' W 015°24'0 0.1
2017-Aug-19 10:28N 28°07' W 015°24'0 0.0
2017-Aug-19 09:58N 28°07' W 015°24'0 0.0
2017-Aug-19 09:28N 28°07' W 015°24'0 0.1
2017-Aug-19 08:58N 28°07' W 015°24'0 0.0
2017-Aug-19 08:28N 28°07' W 015°24'0 0.1
2017-Aug-19 07:58N 28°07' W 015°24'0 0.1
2017-Aug-19 07:28N 28°07' W 015°24'0 0.2
2017-Aug-19 06:58N 28°07' W 015°24'0 0.1
2017-Aug-19 06:19N 28°07' W 015°24'0 0.0
2017-Aug-19 05:49N 28°07' W 015°24'0 0.0
2017-Aug-19 05:19N 28°07' W 015°24'0 0.0
2017-Aug-19 04:52N 28°07' W 015°24'0 0.3
2017-Aug-19 04:22N 28°07' W 015°24'1 2.8
2017-Aug-19 04:00N 28°07' W 015°23'2 4.8
2017-Aug-19 03:30N 28°09' W 015°21'3 5.5
2017-Aug-19 03:00N 28°11' W 015°19'3 6.1
2017-Aug-19 02:30N 28°13' W 015°17'3 6.7
2017-Aug-19 02:00N 28°16' W 015°14'3 6.8
2017-Aug-19 01:30N 28°18' W 015°12'3 6.5
2017-Aug-19 01:00N 28°21' W 015°09'4 8.9
2017-Aug-19 00:30N 28°24' W 015°13'611.3
2017-Aug-19 00:00N 28°27' W 015°18'611.3
2017-Aug-18 23:30N 28°30' W 015°23'611.2
2017-Aug-18 23:00N 28°34' W 015°28'611.1
2017-Aug-18 22:30N 28°37' W 015°34'611.5
2017-Aug-18 22:00N 28°40' W 015°39'611.7
2017-Aug-18 21:30N 28°44' W 015°44'911.5
2017-Aug-18 20:45N 28°49' W 015°52'311.4
2017-Aug-18 20:30N 28°50' W 015°55'611.3
2017-Aug-18 19:59N 28°54' W 016°00'611.6
2017-Aug-18 19:30N 28°57' W 016°06'611.7
2017-Aug-18 19:00N 29°00' W 016°11'611.6
2017-Aug-18 18:30N 29°04' W 016°16'611.5
2017-Aug-18 18:00N 29°07' W 016°22'611.3
2017-Aug-18 17:30N 29°10' W 016°27'611.2
2017-Aug-18 17:00N 29°13' W 016°32'611.2
2017-Aug-18 16:30N 29°17' W 016°37'1311.4
2017-Aug-18 15:24N 29°24' W 016°49'2311.4
2017-Aug-18 13:25N 29°40' W 017°08'511.2
2017-Aug-18 13:00N 29°42' W 017°13'511.2
2017-Aug-18 12:30N 29°46' W 017°18'2311.3
2017-Aug-18 10:29N 29°58' W 017°40'811.1
2017-Aug-18 09:47N 30°03' W 017°47'311.2
2017-Aug-18 09:30N 30°05' W 017°50'611.3
2017-Aug-18 09:00N 30°08' W 017°55'911.1
2017-Aug-18 08:09N 30°13' W 018°04'210.9
2017-Aug-18 08:00N 30°14' W 018°06'611.3
2017-Aug-18 07:29N 30°17' W 018°12'1911.2
2017-Aug-18 05:49N 30°27' W 018°30'411.1
2017-Aug-18 05:29N 30°29' W 018°34'1711.2
2017-Aug-18 04:00N 30°39' W 018°50'611.4
2017-Aug-18 03:30N 30°42' W 018°55'611.3
2017-Aug-18 02:59N 30°45' W 019°01'511.2
2017-Aug-18 02:30N 30°47' W 019°06'511.1
2017-Aug-18 02:00N 30°50' W 019°12'711.2
2017-Aug-18 01:20N 30°54' W 019°20'411.1
2017-Aug-18 00:59N 30°55' W 019°24'511.0
2017-Aug-18 00:30N 30°58' W 019°29'611.1
2017-Aug-18 00:00N 31°00' W 019°35'611.2
2017-Aug-17 23:31N 31°03' W 019°41'611.3
2017-Aug-17 23:00N 31°06' W 019°46'711.6
2017-Aug-17 22:26N 31°09' W 019°53'511.4
2017-Aug-17 22:00N 31°11' W 019°58'611.5
2017-Aug-17 21:30N 31°14' W 020°04'1211.6
2017-Aug-17 20:28N 31°20' W 020°16'1011.7
2017-Aug-17 19:35N 31°25' W 020°27'111.4
2017-Aug-17 19:30N 31°26' W 020°28'1211.7
2017-Aug-17 18:27N 31°32' W 020°40'511.6
2017-Aug-17 18:00N 31°34' W 020°46'2111.4
2017-Aug-17 16:08N 31°44' W 021°08'211.2
2017-Aug-17 16:00N 31°44' W 021°10'41 9.6
2017-Aug-17 11:42N 32°15' W 021°42'1412.0
2017-Aug-17 10:33N 32°22' W 021°56'212.3
2017-Aug-17 10:22N 32°23' W 021°58'912.2
2017-Aug-17 09:38N 32°28' W 022°07'212.1
2017-Aug-17 09:28N 32°29' W 022°10'12011.6
2017-Aug-16 23:10N 33°32' W 024°11'2511.6
2017-Aug-16 20:59N 33°46' W 024°37'611.6
2017-Aug-16 20:27N 33°49' W 024°43'3112.1
2017-Aug-16 17:54N 34°04' W 025°15'2712.6
2017-Aug-16 15:43N 34°18' W 025°44'4812.5
2017-Aug-16 11:52N 34°41' W 026°35'1112.5
2017-Aug-16 10:57N 34°46' W 026°47'2512.5
2017-Aug-16 08:58N 34°58' W 027°14'4012.3
2017-Aug-16 05:43N 35°18' W 027°57'312.9
2017-Aug-16 05:27N 35°20' W 028°00'912.6
2017-Aug-16 04:44N 35°24' W 028°10'412.4
2017-Aug-16 04:26N 35°26' W 028°14'512.4
2017-Aug-16 04:00N 35°28' W 028°20'612.4
2017-Aug-16 03:29N 35°31' W 028°27'612.1
2017-Aug-16 02:59N 35°34' W 028°33'612.0
2017-Aug-16 02:31N 35°37' W 028°39'812.2
2017-Aug-16 01:53N 35°41' W 028°47'512.5
2017-Aug-16 01:29N 35°43' W 028°53'712.8
2017-Aug-16 00:56N 35°47' W 029°01'512.7
2017-Aug-16 00:30N 35°49' W 029°06'1612.8
2017-Aug-15 23:17N 35°57' W 029°23'412.4
2017-Aug-15 22:58N 35°59' W 029°27'1412.2
2017-Aug-15 21:47N 36°05' W 029°43'612.4
2017-Aug-15 21:18N 36°08' W 029°50'412.5
2017-Aug-15 21:00N 36°10' W 029°54'712.3
2017-Aug-15 20:28N 36°13' W 030°01'612.2
2017-Aug-15 20:00N 36°16' W 030°07'712.1
2017-Aug-15 19:24N 36°19' W 030°15'1012.4
2017-Aug-15 18:37N 36°23' W 030°26'712.5
2017-Aug-15 18:05N 36°26' W 030°34'212.2
2017-Aug-15 17:57N 36°27' W 030°35'612.1
2017-Aug-15 17:29N 36°30' W 030°42'812.2
2017-Aug-15 16:52N 36°33' W 030°50'412.3
2017-Aug-15 16:30N 36°35' W 030°55'1512.2
2017-Aug-15 15:18N 36°41' W 031°12'412.5
2017-Aug-15 15:00N 36°43' W 031°16'912.1
2017-Aug-15 14:17N 36°47' W 031°25'412.8
2017-Aug-15 14:01N 36°48' W 031°29'812.4
2017-Aug-15 13:19N 36°52' W 031°39'612.1
2017-Aug-15 12:50N 36°55' W 031°46'411.9
2017-Aug-15 12:28N 36°56' W 031°50'1712.0
2017-Aug-15 11:04N 37°04' W 032°10'111.7
2017-Aug-15 11:00N 37°04' W 032°10'712.5
2017-Aug-15 10:28N 37°07' W 032°18'612.6
2017-Aug-15 10:00N 37°10' W 032°25'612.8
2017-Aug-15 09:30N 37°12' W 032°32'10812.2
2017-Aug-15 00:36N 37°60' W 034°35'  

Dump ship's entire track history